Time;durP1;ratioP1;P1;durP2;ratioP2;P2;SDS_P1;SDS_P2;PMS_P1;PMS_P2;Temp;Humidity;BMP_temperature;BMP_pressure;BME280_temperature;BME280_humidity;BME280_pressure;Samples;Min_cycle;Max_cycle;Signal;HPM_P1;HPM_P2
2024/01/26 00:01:44;;;;;;;25.23;7.00;;;;;;;;;;5095476;28;20084;-72
2024/01/26 00:04:29;;;;;;;32.13;7.30;;;;;;;;;;5095834;28;20073;-72
2024/01/26 00:07:15;;;;;;;23.30;6.85;;;;;;;;;;5093248;28;20024;-72
2024/01/26 00:10:00;;;;;;;25.27;6.72;;;;;;;;;;5094859;28;20107;-72
2024/01/26 00:12:46;;;;;;;29.90;7.07;;;;;;;;;;5093621;28;20027;-72
2024/01/26 00:15:32;;;;;;;32.78;5.95;;;;;;;;;;5094075;28;20020;-72
2024/01/26 00:18:17;;;;;;;22.67;6.95;;;;;;;;;;5095284;28;20024;-72
2024/01/26 00:21:03;;;;;;;21.48;6.43;;;;;;;;;;5095264;28;20520;-72
2024/01/26 00:23:49;;;;;;;30.50;6.88;;;;;;;;;;5095299;28;20489;-72
2024/01/26 00:26:35;;;;;;;31.40;6.20;;;;;;;;;;5093104;28;20412;-72
2024/01/26 00:29:21;;;;;;;26.73;6.15;;;;;;;;;;5093853;28;20024;-72
2024/01/26 00:32:08;;;;;;;31.02;7.32;;;;;;;;;;5079564;28;20020;-72
2024/01/26 00:34:54;;;;;;;31.00;7.68;;;;;;;;;;5093318;28;20024;-72
2024/01/26 00:37:40;;;;;;;31.63;6.72;;;;;;;;;;5093380;28;20024;-72
2024/01/26 00:40:25;;;;;;;32.10;7.15;;;;;;;;;;5079488;28;20382;-72
2024/01/26 00:43:11;;;;;;;45.58;8.00;;;;;;;;;;5094519;28;20032;-72
2024/01/26 00:45:57;;;;;;;24.83;7.75;;;;;;;;;;5093798;28;20024;-72
2024/01/26 00:48:42;;;;;;;31.20;8.00;;;;;;;;;;5092677;28;20024;-72
2024/01/26 00:51:28;;;;;;;25.20;6.18;;;;;;;;;;5094139;28;20123;-72
2024/01/26 00:54:13;;;;;;;22.75;7.10;;;;;;;;;;5095330;28;20022;-72
2024/01/26 00:56:59;;;;;;;33.13;7.45;;;;;;;;;;5094851;28;20477;-72
2024/01/26 00:59:45;;;;;;;28.40;6.82;;;;;;;;;;5093580;28;20039;-72
2024/01/26 01:02:30;;;;;;;24.17;6.53;;;;;;;;;;5093246;28;20024;-72
2024/01/26 01:05:16;;;;;;;22.10;7.28;;;;;;;;;;5094376;28;20043;-72
2024/01/26 01:08:02;;;;;;;27.02;7.15;;;;;;;;;;5078953;28;20016;-72
2024/01/26 01:10:48;;;;;;;21.52;7.35;;;;;;;;;;5093103;28;20023;-72
2024/01/26 01:13:33;;;;;;;15.65;6.25;;;;;;;;;;5092811;28;20026;-72
2024/01/26 01:16:20;;;;;;;36.53;7.95;;;;;;;;;;5092879;28;20020;-72
2024/01/26 01:19:07;;;;;;;28.10;8.38;;;;;;;;;;5092563;28;20036;-72
2024/01/26 01:21:56;;;;;;;34.85;8.25;;;;;;;;;;5078707;28;20020;-72
2024/01/26 01:24:41;;;;;;;23.95;6.90;;;;;;;;;;5092785;28;20177;-72
2024/01/26 01:27:27;;;;;;;33.55;7.72;;;;;;;;;;5075602;28;20029;-72
2024/01/26 01:30:13;;;;;;;30.48;8.00;;;;;;;;;;5064048;28;20099;-72
2024/01/26 01:33:02;;;;;;;24.80;8.02;;;;;;;;;;5061250;28;20036;-71
2024/01/26 01:35:47;;;;;;;32.90;7.80;;;;;;;;;;5073299;28;20017;-72
2024/01/26 01:38:33;;;;;;;31.85;7.70;;;;;;;;;;5073128;28;20059;-71
2024/01/26 01:41:18;;;;;;;26.60;7.82;;;;;;;;;;5073141;28;20031;-72
2024/01/26 01:44:07;;;;;;;28.67;8.88;;;;;;;;;;5072945;28;20413;-72
2024/01/26 01:46:52;;;;;;;38.67;9.23;;;;;;;;;;5073168;28;20029;-72
2024/01/26 01:49:39;;;;;;;28.50;8.82;;;;;;;;;;5073081;28;20027;-72
2024/01/26 01:52:26;;;;;;;30.85;8.80;;;;;;;;;;5058538;28;20482;-72
2024/01/26 01:55:15;;;;;;;36.17;10.25;;;;;;;;;;5072793;28;20107;-72
2024/01/26 01:58:02;;;;;;;42.03;11.02;;;;;;;;;;5044786;28;20417;-72
2024/01/26 02:00:48;;;;;;;33.13;8.95;;;;;;;;;;5058220;28;20461;-72
2024/01/26 02:03:34;;;;;;;36.08;11.38;;;;;;;;;;5073406;28;20500;-72
2024/01/26 02:06:20;;;;;;;33.90;10.90;;;;;;;;;;5073433;28;20032;-72
2024/01/26 02:09:05;;;;;;;38.75;11.43;;;;;;;;;;5073177;28;20028;-72
2024/01/26 02:11:51;;;;;;;41.55;12.32;;;;;;;;;;5072425;28;20093;-72
2024/01/26 02:14:37;;;;;;;41.75;12.85;;;;;;;;;;5058052;28;20392;-72
2024/01/26 02:17:30;;;;;;;46.15;13.77;;;;;;;;;;5072500;28;20058;-72
2024/01/26 02:20:16;;;;;;;50.25;13.27;;;;;;;;;;5072188;28;20437;-72
2024/01/26 02:23:01;;;;;;;50.50;13.18;;;;;;;;;;5072446;28;20107;-71
2024/01/26 02:25:47;;;;;;;48.35;12.68;;;;;;;;;;5057615;28;20067;-72
2024/01/26 02:28:33;;;;;;;45.38;14.52;;;;;;;;;;5072413;28;20100;-72
2024/01/26 02:31:18;;;;;;;48.03;12.60;;;;;;;;;;5072780;28;20028;-72
2024/01/26 02:34:04;;;;;;;52.97;14.23;;;;;;;;;;5072380;28;20046;-72
2024/01/26 02:36:49;;;;;;;49.05;14.98;;;;;;;;;;5072601;28;20024;-72
2024/01/26 02:39:35;;;;;;;53.88;13.02;;;;;;;;;;5073858;28;20032;-71
2024/01/26 02:42:21;;;;;;;58.95;14.05;;;;;;;;;;5073441;28;20064;-72
2024/01/26 02:45:07;;;;;;;66.20;15.60;;;;;;;;;;5072263;28;20082;-72
2024/01/26 02:47:53;;;;;;;53.30;14.25;;;;;;;;;;5073400;28;20110;-72
2024/01/26 02:50:39;;;;;;;59.88;15.95;;;;;;;;;;5072072;28;20067;-72
2024/01/26 02:53:26;;;;;;;54.42;15.18;;;;;;;;;;5059025;28;20047;-71
2024/01/26 02:56:11;;;;;;;58.90;17.45;;;;;;;;;;5072581;28;20028;-72
2024/01/26 02:58:57;;;;;;;60.60;17.77;;;;;;;;;;5071426;28;20036;-72
2024/01/26 03:01:43;;;;;;;61.67;16.58;;;;;;;;;;5072127;28;20016;-72
2024/01/26 03:04:28;;;;;;;58.17;16.10;;;;;;;;;;5072533;28;20035;-72
2024/01/26 03:07:14;;;;;;;63.95;15.68;;;;;;;;;;5072258;28;20023;-72
2024/01/26 03:10:00;;;;;;;63.90;15.05;;;;;;;;;;5057379;28;20029;-72
2024/01/26 03:12:47;;;;;;;66.93;16.40;;;;;;;;;;5072902;28;20107;-72
2024/01/26 03:15:33;;;;;;;62.67;16.95;;;;;;;;;;5072950;28;20017;-72
2024/01/26 03:18:18;;;;;;;74.30;17.92;;;;;;;;;;5072027;28;20025;-72
2024/01/26 03:21:04;;;;;;;72.68;16.20;;;;;;;;;;5071723;28;20473;-71
2024/01/26 03:23:50;;;;;;;52.63;16.48;;;;;;;;;;5072301;28;20052;-72
2024/01/26 03:26:35;;;;;;;72.32;15.80;;;;;;;;;;5072269;28;20025;-72
2024/01/26 03:29:21;;;;;;;69.28;17.42;;;;;;;;;;5058290;28;20028;-72
2024/01/26 03:32:07;;;;;;;65.18;17.05;;;;;;;;;;5071634;28;20107;-72
2024/01/26 03:34:52;;;;;;;73.43;17.75;;;;;;;;;;5072635;28;20021;-72
2024/01/26 03:37:38;;;;;;;60.83;17.10;;;;;;;;;;5058300;28;20104;-72
2024/01/26 03:40:24;;;;;;;72.00;19.08;;;;;;;;;;5072423;28;20401;-71
2024/01/26 03:43:10;;;;;;;67.57;18.42;;;;;;;;;;5059529;28;20032;-72
2024/01/26 03:45:55;;;;;;;63.45;17.55;;;;;;;;;;5075486;28;20077;-72
2024/01/26 03:48:41;;;;;;;69.85;18.13;;;;;;;;;;5074950;28;20490;-72
2024/01/26 03:51:27;;;;;;;63.60;18.75;;;;;;;;;;5075116;28;20028;-72
2024/01/26 03:54:12;;;;;;;65.00;18.65;;;;;;;;;;5075900;28;20025;-72
2024/01/26 03:56:58;;;;;;;63.97;16.58;;;;;;;;;;5075179;28;20082;-72
2024/01/26 03:59:43;;;;;;;71.70;16.88;;;;;;;;;;5060406;28;20454;-72
2024/01/26 04:02:30;;;;;;;78.43;18.90;;;;;;;;;;5074936;28;20017;-72
2024/01/26 04:05:15;;;;;;;68.47;17.40;;;;;;;;;;5074480;28;20048;-72
2024/01/26 04:08:02;;;;;;;68.63;17.00;;;;;;;;;;5075508;28;20028;-72
2024/01/26 04:10:47;;;;;;;65.57;17.80;;;;;;;;;;5076231;28;20025;-72
2024/01/26 04:13:33;;;;;;;66.60;15.57;;;;;;;;;;5074169;28;20120;-72
2024/01/26 04:16:18;;;;;;;63.53;15.55;;;;;;;;;;5061048;28;20016;-72
2024/01/26 04:19:04;;;;;;;58.30;15.07;;;;;;;;;;5076211;28;20058;-72
2024/01/26 04:21:51;;;;;;;68.22;17.17;;;;;;;;;;5074830;28;20378;-72
2024/01/26 04:24:37;;;;;;;65.38;16.67;;;;;;;;;;5075059;28;20505;-72
2024/01/26 04:27:23;;;;;;;50.75;14.55;;;;;;;;;;5061427;28;20031;-71
2024/01/26 04:30:09;;;;;;;58.92;17.52;;;;;;;;;;5074921;28;20020;-72
2024/01/26 04:32:54;;;;;;;57.30;15.57;;;;;;;;;;5060381;28;20390;-72
2024/01/26 04:35:40;;;;;;;72.28;15.93;;;;;;;;;;5075602;28;20021;-72
2024/01/26 04:38:26;;;;;;;62.58;15.52;;;;;;;;;;5074632;28;20209;-71
2024/01/26 04:41:11;;;;;;;61.65;15.35;;;;;;;;;;5074412;28;20025;-72
2024/01/26 04:43:57;;;;;;;69.65;17.83;;;;;;;;;;5074516;28;20060;-72
2024/01/26 04:46:45;;;;;;;71.32;15.57;;;;;;;;;;5074315;28;20024;-72
2024/01/26 04:49:31;;;;;;;66.82;17.05;;;;;;;;;;5074368;28;20020;-72
2024/01/26 04:52:17;;;;;;;70.07;17.02;;;;;;;;;;5074672;28;20032;-72
2024/01/26 04:55:04;;;;;;;67.80;16.15;;;;;;;;;;5074691;28;20474;-72
2024/01/26 04:57:50;;;;;;;69.68;15.43;;;;;;;;;;5075413;28;20032;-72
2024/01/26 05:00:35;;;;;;;65.85;15.48;;;;;;;;;;5073849;28;20029;-72
2024/01/26 05:03:21;;;;;;;75.35;18.98;;;;;;;;;;5074212;28;20074;-72
2024/01/26 05:06:06;;;;;;;72.10;19.08;;;;;;;;;;5073435;28;20074;-72
2024/01/26 05:08:52;;;;;;;54.33;14.40;;;;;;;;;;5074423;28;20485;-72
2024/01/26 05:11:38;;;;;;;68.43;17.05;;;;;;;;;;5074640;28;20035;-72
2024/01/26 05:14:23;;;;;;;62.28;16.50;;;;;;;;;;5073202;28;20020;-72
2024/01/26 05:17:09;;;;;;;76.05;17.30;;;;;;;;;;5075103;28;20052;-72
2024/01/26 05:19:55;;;;;;;61.97;14.82;;;;;;;;;;5075295;28;20112;-72
2024/01/26 05:22:41;;;;;;;78.20;18.80;;;;;;;;;;5073660;28;20020;-72
2024/01/26 05:25:26;;;;;;;79.47;17.65;;;;;;;;;;5059361;28;20027;-72
2024/01/26 05:28:12;;;;;;;64.93;18.02;;;;;;;;;;5073389;28;20020;-72
2024/01/26 05:30:57;;;;;;;73.88;17.88;;;;;;;;;;5073829;28;20051;-72
2024/01/26 05:33:43;;;;;;;72.82;18.92;;;;;;;;;;5074275;28;20034;-72
2024/01/26 05:36:29;;;;;;;67.00;18.77;;;;;;;;;;5075499;28;20370;-72
2024/01/26 05:39:14;;;;;;;66.22;17.92;;;;;;;;;;5058988;28;20119;-72
2024/01/26 05:42:00;;;;;;;74.25;16.48;;;;;;;;;;5073238;28;20042;-72
2024/01/26 05:44:46;;;;;;;78.20;20.83;;;;;;;;;;5074522;28;20016;-72
2024/01/26 05:47:31;;;;;;;80.55;17.95;;;;;;;;;;5073759;28;20029;-72
2024/01/26 05:50:17;;;;;;;72.72;20.90;;;;;;;;;;5073949;28;20051;-72
2024/01/26 05:53:03;;;;;;;65.75;17.95;;;;;;;;;;5058708;28;20024;-72
2024/01/26 05:55:48;;;;;;;76.32;17.55;;;;;;;;;;5074086;28;20024;-72
2024/01/26 05:58:34;;;;;;;70.72;19.38;;;;;;;;;;5073809;28;20028;-72
2024/01/26 06:01:20;;;;;;;65.40;17.30;;;;;;;;;;5073230;28;20029;-72
2024/01/26 06:04:05;;;;;;;60.22;18.88;;;;;;;;;;5072784;28;20029;-72
2024/01/26 06:06:51;;;;;;;69.28;17.42;;;;;;;;;;5072041;28;20082;-71
2024/01/26 06:09:36;;;;;;;66.10;19.38;;;;;;;;;;5058703;28;20027;-72
2024/01/26 06:12:22;;;;;;;56.38;16.98;;;;;;;;;;5072907;28;20498;-71
2024/01/26 06:15:10;;;;;;;62.22;16.40;;;;;;;;;;5075783;28;20518;-71
2024/01/26 06:17:56;;;;;;;71.43;19.20;;;;;;;;;;5090860;28;20028;-71
2024/01/26 06:20:42;;;;;;;70.80;17.90;;;;;;;;;;5075423;28;20020;-71
2024/01/26 06:23:28;;;;;;;75.72;17.27;;;;;;;;;;5078488;28;20024;-71
2024/01/26 06:26:13;;;;;;;65.18;17.58;;;;;;;;;;5073793;28;20025;-71
2024/01/26 06:28:59;;;;;;;70.97;20.48;;;;;;;;;;5072910;28;20040;-71
2024/01/26 06:31:44;;;;;;;83.72;21.02;;;;;;;;;;5072051;28;20379;-72
2024/01/26 06:34:30;;;;;;;70.57;17.60;;;;;;;;;;5071623;28;20408;-72
2024/01/26 06:37:16;;;;;;;77.60;21.38;;;;;;;;;;5073634;28;20073;-72
2024/01/26 06:40:02;;;;;;;77.00;20.17;;;;;;;;;;5073619;28;20032;-71
2024/01/26 06:42:48;;;;;;;74.38;21.08;;;;;;;;;;5073272;28;20035;-72
2024/01/26 06:45:34;;;;;;;75.85;20.02;;;;;;;;;;5072376;28;20023;-72
2024/01/26 06:48:20;;;;;;;83.43;20.73;;;;;;;;;;5058816;28;20020;-72
2024/01/26 06:51:05;;;;;;;62.95;20.60;;;;;;;;;;5072926;28;20490;-72
2024/01/26 06:53:51;;;;;;;78.03;22.00;;;;;;;;;;5073240;28;20032;-72
2024/01/26 06:56:37;;;;;;;72.20;18.90;;;;;;;;;;5072002;28;20028;-72
2024/01/26 06:59:22;;;;;;;82.38;21.17;;;;;;;;;;5072244;28;20028;-71
2024/01/26 07:02:08;;;;;;;80.65;20.98;;;;;;;;;;5073457;28;20499;-72
2024/01/26 07:04:53;;;;;;;75.43;19.95;;;;;;;;;;5074304;28;20025;-72
2024/01/26 07:07:39;;;;;;;78.68;20.63;;;;;;;;;;5058094;28;20017;-71
2024/01/26 07:10:25;;;;;;;75.25;19.83;;;;;;;;;;5073829;28;20086;-71
2024/01/26 07:13:11;;;;;;;61.15;17.73;;;;;;;;;;5072533;28;20028;-71
2024/01/26 07:15:56;;;;;;;69.05;17.42;;;;;;;;;;5073631;28;20027;-71
2024/01/26 07:18:42;;;;;;;62.05;15.65;;;;;;;;;;5076303;28;20508;-71
2024/01/26 07:21:28;;;;;;;54.00;16.60;;;;;;;;;;5077843;28;20434;-71
2024/01/26 07:24:13;;;;;;;57.38;17.33;;;;;;;;;;5077759;28;20021;-71
2024/01/26 07:26:59;;;;;;;51.00;15.48;;;;;;;;;;5077376;28;20028;-71
2024/01/26 07:29:47;;;;;;;51.63;17.95;;;;;;;;;;5061973;28;20382;-71
2024/01/26 07:32:34;;;;;;;55.88;15.82;;;;;;;;;;5062394;28;20471;-71
2024/01/26 07:35:19;;;;;;;44.10;13.73;;;;;;;;;;5075920;28;20117;-71
2024/01/26 07:38:05;;;;;;;44.85;12.15;;;;;;;;;;5061356;28;20029;-71
2024/01/26 07:40:50;;;;;;;43.85;13.23;;;;;;;;;;5074574;28;20036;-71
2024/01/26 07:43:36;;;;;;;37.90;13.98;;;;;;;;;;5075223;28;20032;-71
2024/01/26 07:46:22;;;;;;;37.83;11.68;;;;;;;;;;5077024;28;20028;-72
2024/01/26 07:49:07;;;;;;;33.83;10.85;;;;;;;;;;5077348;28;20024;-72
2024/01/26 07:51:53;;;;;;;36.03;11.00;;;;;;;;;;5076003;28;20103;-71
2024/01/26 07:54:44;;;;;;;30.58;9.85;;;;;;;;;;5075977;28;20055;-71
2024/01/26 07:57:30;;;;;;;34.95;14.27;;;;;;;;;;5075703;28;20517;-71
2024/01/26 08:00:17;;;;;;;34.08;9.27;;;;;;;;;;5076183;28;20056;-71
2024/01/26 08:03:03;;;;;;;41.47;10.93;;;;;;;;;;5074281;28;20025;-72
2024/01/26 08:05:49;;;;;;;27.02;9.45;;;;;;;;;;5076255;28;20448;-72
2024/01/26 08:08:34;;;;;;;29.98;9.93;;;;;;;;;;5061727;28;20383;-71
2024/01/26 08:11:20;;;;;;;30.38;9.32;;;;;;;;;;5060942;28;20024;-72
2024/01/26 08:14:06;;;;;;;31.70;9.43;;;;;;;;;;5074506;28;20379;-71
2024/01/26 08:16:52;;;;;;;27.90;8.88;;;;;;;;;;5076309;28;20027;-70
2024/01/26 08:19:37;;;;;;;20.00;7.35;;;;;;;;;;5061311;28;20021;-71
2024/01/26 08:22:23;;;;;;;28.02;10.13;;;;;;;;;;5060991;28;20433;-71
2024/01/26 08:25:09;;;;;;;19.40;7.63;;;;;;;;;;5075960;28;20112;-71
2024/01/26 08:27:55;;;;;;;21.35;7.07;;;;;;;;;;5060203;28;20017;-71
2024/01/26 08:30:42;;;;;;;31.13;8.93;;;;;;;;;;5075483;28;20027;-72
2024/01/26 08:33:27;;;;;;;25.80;8.63;;;;;;;;;;5075369;28;20024;-72
2024/01/26 08:36:13;;;;;;;19.73;7.22;;;;;;;;;;5061844;28;20070;-72
2024/01/26 08:38:59;;;;;;;25.50;8.05;;;;;;;;;;5075606;28;20031;-71
2024/01/26 08:41:46;;;;;;;22.83;7.70;;;;;;;;;;5072677;28;20504;-72
2024/01/26 08:44:32;;;;;;;25.02;7.78;;;;;;;;;;5060317;28;20028;-72
2024/01/26 08:47:18;;;;;;;19.70;7.55;;;;;;;;;;5059791;28;20085;-72
2024/01/26 08:50:04;;;;;;;19.63;6.30;;;;;;;;;;5058684;28;20037;-71
2024/01/26 08:52:49;;;;;;;17.40;7.40;;;;;;;;;;5059392;28;20051;-71
2024/01/26 08:55:39;;;;;;;20.20;6.40;;;;;;;;;;5074818;28;20032;-71
2024/01/26 08:58:25;;;;;;;19.70;8.50;;;;;;;;;;5059587;28;20112;-71
2024/01/26 09:01:10;;;;;;;22.13;7.38;;;;;;;;;;5072632;28;20027;-72
2024/01/26 09:03:56;;;;;;;14.70;5.90;;;;;;;;;;5073055;28;20036;-71
2024/01/26 09:06:42;;;;;;;15.98;5.80;;;;;;;;;;5072697;28;20488;-71
2024/01/26 09:09:28;;;;;;;21.63;8.50;;;;;;;;;;5073533;28;20059;-71
2024/01/26 09:12:14;;;;;;;21.23;7.25;;;;;;;;;;5059319;28;20025;-71
2024/01/26 09:14:59;;;;;;;26.13;8.25;;;;;;;;;;5101124;22;20043;-73
2024/01/26 09:17:45;;;;;;;18.05;6.20;;;;;;;;;;5099351;28;20031;-75
2024/01/26 09:20:30;;;;;;;20.58;7.00;;;;;;;;;;5098536;28;20047;-74
2024/01/26 09:23:16;;;;;;;17.08;6.68;;;;;;;;;;5116433;27;20404;-73
2024/01/26 09:26:02;;;;;;;16.05;5.55;;;;;;;;;;5119176;27;20019;-73
2024/01/26 09:28:48;;;;;;;20.33;6.47;;;;;;;;;;5099773;27;20024;-74
2024/01/26 09:31:34;;;;;;;15.38;5.55;;;;;;;;;;5118772;27;20476;-74
2024/01/26 09:34:19;;;;;;;13.90;5.35;;;;;;;;;;5114242;27;20504;-75
2024/01/26 09:37:05;;;;;;;12.35;4.63;;;;;;;;;;5104159;28;20094;-75
2024/01/26 09:39:51;;;;;;;13.32;5.32;;;;;;;;;;5113349;28;20499;-75
2024/01/26 09:42:36;;;;;;;9.77;4.03;;;;;;;;;;5096953;28;20056;-74
2024/01/26 09:45:23;;;;;;;7.15;3.55;;;;;;;;;;5096665;28;20086;-73
2024/01/26 09:48:09;;;;;;;9.65;4.85;;;;;;;;;;5099045;28;20111;-75
2024/01/26 09:50:55;;;;;;;9.00;3.97;;;;;;;;;;5098533;28;20031;-74
2024/01/26 09:53:41;;;;;;;11.45;3.50;;;;;;;;;;5112500;28;20027;-74
2024/01/26 09:56:28;;;;;;;10.20;4.53;;;;;;;;;;5111399;28;20060;-74
2024/01/26 09:59:14;;;;;;;11.48;5.85;;;;;;;;;;5098632;28;20481;-74
2024/01/26 10:02:00;;;;;;;15.20;6.43;;;;;;;;;;5112179;28;20112;-74
2024/01/26 10:04:46;;;;;;;22.30;7.15;;;;;;;;;;5099027;28;20104;-73
2024/01/26 10:07:31;;;;;;;16.42;5.78;;;;;;;;;;5096566;28;20111;-73
2024/01/26 10:10:17;;;;;;;15.07;6.72;;;;;;;;;;5112169;28;20027;-73
2024/01/26 10:13:06;;;;;;;21.15;8.13;;;;;;;;;;5097915;28;20396;-73
2024/01/26 10:16:04;;;;;;;20.88;8.23;;;;;;;;;;5097289;28;20024;-73
2024/01/26 10:18:50;;;;;;;22.48;8.75;;;;;;;;;;5083616;28;20541;-73
2024/01/26 10:21:35;;;;;;;20.77;6.63;;;;;;;;;;5111593;28;20027;-74
2024/01/26 10:24:23;;;;;;;26.20;7.40;;;;;;;;;;5097250;28;20023;-73
2024/01/26 10:27:09;;;;;;;33.45;8.75;;;;;;;;;;5097714;28;20015;-74
2024/01/26 10:29:54;;;;;;;23.05;7.38;;;;;;;;;;5111465;28;20027;-74
2024/01/26 10:32:40;;;;;;;27.75;7.97;;;;;;;;;;5102209;28;20026;-74
2024/01/26 10:35:26;;;;;;;20.98;6.20;;;;;;;;;;5098967;28;20026;-73
2024/01/26 10:38:14;;;;;;;33.67;7.10;;;;;;;;;;5097316;28;20088;-73
2024/01/26 10:41:04;;;;;;;29.00;7.07;;;;;;;;;;5098034;28;20026;-73
2024/01/26 10:43:52;;;;;;;25.08;5.65;;;;;;;;;;5112507;28;20023;-73
2024/01/26 10:46:38;;;;;;;25.63;8.90;;;;;;;;;;5083943;28;20026;-74
2024/01/26 10:49:24;;;;;;;28.67;6.28;;;;;;;;;;5110742;28;20016;-74
2024/01/26 10:52:10;;;;;;;28.67;6.25;;;;;;;;;;5086621;28;20416;-75
2024/01/26 10:54:56;;;;;;;27.13;6.90;;;;;;;;;;5101424;28;20024;-74
2024/01/26 10:57:41;;;;;;;24.85;6.18;;;;;;;;;;5115920;28;20024;-75
2024/01/26 11:00:27;;;;;;;22.05;5.93;;;;;;;;;;5117251;28;20023;-75
2024/01/26 11:03:14;;;;;;;28.40;6.25;;;;;;;;;;5115110;28;20024;-74
2024/01/26 11:06:00;;;;;;;22.13;6.00;;;;;;;;;;5095546;28;20020;-74
2024/01/26 11:08:46;;;;;;;46.28;6.35;;;;;;;;;;5117044;28;20020;-74
2024/01/26 11:11:35;;;;;;;44.47;7.88;;;;;;;;;;5115661;28;20477;-74
2024/01/26 11:14:26;;;;;;;34.85;8.20;;;;;;;;;;5103386;27;20051;-75
2024/01/26 11:17:12;;;;;;;27.35;5.05;;;;;;;;;;5112899;27;20034;-74
2024/01/26 11:20:00;;;;;;;39.15;6.10;;;;;;;;;;5109472;27;20019;-74
2024/01/26 11:22:46;;;;;;;47.85;7.97;;;;;;;;;;5115263;27;20019;-74
2024/01/26 11:25:40;;;;;;;30.90;5.55;;;;;;;;;;5112991;28;20022;-74
2024/01/26 11:28:29;;;;;;;28.67;6.63;;;;;;;;;;5088149;27;20403;-74
2024/01/26 11:31:15;;;;;;;24.70;5.70;;;;;;;;;;5105605;28;20020;-74
2024/01/26 11:34:00;;;;;;;24.02;5.60;;;;;;;;;;5108785;28;20026;-74
2024/01/26 11:36:46;;;;;;;33.45;6.95;;;;;;;;;;5122049;27;20023;-74
2024/01/26 11:39:32;;;;;;;30.48;4.93;;;;;;;;;;5100894;28;20491;-74
2024/01/26 11:42:18;;;;;;;24.25;5.53;;;;;;;;;;5116498;28;20389;-74
2024/01/26 11:45:08;;;;;;;14.98;4.03;;;;;;;;;;5101282;28;20476;-74
2024/01/26 11:47:53;;;;;;;25.90;4.55;;;;;;;;;;5104984;27;20024;-74
2024/01/26 11:50:43;;;;;;;22.63;3.47;;;;;;;;;;5115876;28;20073;-74
2024/01/26 11:53:29;;;;;;;27.00;4.75;;;;;;;;;;5099575;28;20024;-74
2024/01/26 11:56:15;;;;;;;31.58;5.07;;;;;;;;;;5115930;28;20366;-74
2024/01/26 11:59:00;;;;;;;18.30;3.38;;;;;;;;;;5118194;27;20496;-74
2024/01/26 12:01:46;;;;;;;28.42;5.18;;;;;;;;;;5136487;27;20049;-74
2024/01/26 12:04:32;;;;;;;20.58;5.10;;;;;;;;;;5134846;27;20529;-74
2024/01/26 12:07:17;;;;;;;24.80;5.10;;;;;;;;;;5121235;27;20384;-74
2024/01/26 12:10:03;;;;;;;10.63;3.17;;;;;;;;;;5120844;27;20027;-74
2024/01/26 12:12:49;;;;;;;15.30;2.95;;;;;;;;;;5136688;27;20464;-74
2024/01/26 12:15:39;;;;;;;21.17;4.57;;;;;;;;;;5119654;27;20092;-74
2024/01/26 12:18:24;;;;;;;16.40;2.80;;;;;;;;;;5121540;27;20495;-75
2024/01/26 12:21:10;;;;;;;22.98;3.38;;;;;;;;;;5120756;27;20031;-74
2024/01/26 12:23:56;;;;;;;11.70;3.08;;;;;;;;;;5121039;27;20105;-74
2024/01/26 12:26:42;;;;;;;18.35;4.22;;;;;;;;;;5134989;27;20015;-75
2024/01/26 12:29:29;;;;;;;19.30;4.38;;;;;;;;;;5120860;27;20467;-74
2024/01/26 12:32:14;;;;;;;14.38;2.90;;;;;;;;;;5120896;27;20113;-74
2024/01/26 12:35:01;;;;;;;17.25;3.08;;;;;;;;;;5131521;27;20023;-73
2024/01/26 12:37:47;;;;;;;24.75;4.20;;;;;;;;;;5085530;28;20059;-74
2024/01/26 12:40:33;;;;;;;17.05;3.17;;;;;;;;;;5098735;27;20023;-74
2024/01/26 12:43:18;;;;;;;12.32;2.60;;;;;;;;;;5108356;27;20058;-74
2024/01/26 12:46:05;;;;;;;15.20;4.00;;;;;;;;;;5097066;28;20023;-74
2024/01/26 12:48:50;;;;;;;21.55;4.47;;;;;;;;;;5117739;27;20684;-74
2024/01/26 12:51:36;;;;;;;34.90;11.70;;;;;;;;;;5119951;27;20038;-74
2024/01/26 12:54:21;;;;;;;25.13;4.63;;;;;;;;;;5135794;27;20084;-74
2024/01/26 12:57:07;;;;;;;20.33;3.05;;;;;;;;;;5119972;27;20178;-74
2024/01/26 12:59:53;;;;;;;11.73;2.70;;;;;;;;;;5134720;27;20015;-75
2024/01/26 13:02:38;;;;;;;6.45;3.42;;;;;;;;;;5125430;27;20019;-74
2024/01/26 13:05:24;;;;;;;7.80;2.95;;;;;;;;;;5098327;28;20023;-74
2024/01/26 13:08:10;;;;;;;7.40;1.90;;;;;;;;;;5113147;28;20042;-74
2024/01/26 13:10:56;;;;;;;15.10;3.03;;;;;;;;;;5099260;28;20119;-74
2024/01/26 13:13:41;;;;;;;8.95;3.15;;;;;;;;;;5101267;27;20027;-74
2024/01/26 13:16:27;;;;;;;28.52;4.40;;;;;;;;;;5111760;28;20020;-75
2024/01/26 13:19:14;;;;;;;32.53;10.70;;;;;;;;;;5098644;28;20084;-74
2024/01/26 13:22:00;;;;;;;33.83;10.32;;;;;;;;;;5085880;28;20389;-74
2024/01/26 13:24:47;;;;;;;18.33;5.10;;;;;;;;;;5098579;28;20059;-74
2024/01/26 13:27:32;;;;;;;11.70;3.25;;;;;;;;;;5115978;27;20027;-74
2024/01/26 13:30:18;;;;;;;13.98;3.97;;;;;;;;;;5126900;27;20126;-75
2024/01/26 13:33:06;;;;;;;19.10;5.78;;;;;;;;;;5134618;27;20118;-74
2024/01/26 13:35:51;;;;;;;20.85;3.97;;;;;;;;;;5119839;27;20023;-75
2024/01/26 13:38:37;;;;;;;15.27;3.75;;;;;;;;;;5134408;27;20036;-74
2024/01/26 13:41:23;;;;;;;10.02;4.47;;;;;;;;;;5108645;28;20028;-74
2024/01/26 13:44:08;;;;;;;19.13;6.03;;;;;;;;;;5099760;28;20033;-75
2024/01/26 13:46:54;;;;;;;19.88;5.57;;;;;;;;;;5099712;28;20446;-75
2024/01/26 13:49:40;;;;;;;19.60;4.70;;;;;;;;;;5102132;28;20047;-74
2024/01/26 13:52:25;;;;;;;18.05;3.45;;;;;;;;;;5112977;28;20035;-74
2024/01/26 13:55:11;;;;;;;16.63;3.10;;;;;;;;;;5112246;28;20051;-74
2024/01/26 13:57:57;;;;;;;21.10;3.75;;;;;;;;;;5098858;28;20024;-74
2024/01/26 14:00:45;;;;;;;11.15;4.40;;;;;;;;;;5113325;28;20390;-75
2024/01/26 14:03:31;;;;;;;18.85;6.25;;;;;;;;;;5111741;27;20031;-74
2024/01/26 14:06:16;;;;;;;45.30;7.63;;;;;;;;;;5113973;28;20083;-75
2024/01/26 14:09:03;;;;;;;24.25;6.05;;;;;;;;;;5112843;28;20066;-75
2024/01/26 14:11:48;;;;;;;24.15;5.68;;;;;;;;;;5100551;28;20039;-75
2024/01/26 14:14:34;;;;;;;23.05;5.45;;;;;;;;;;5122334;27;20028;-75
2024/01/26 14:17:20;;;;;;;21.50;5.53;;;;;;;;;;5092337;28;20031;-74
2024/01/26 14:20:06;;;;;;;31.40;5.70;;;;;;;;;;5120195;27;20373;-75
2024/01/26 14:22:52;;;;;;;24.17;4.07;;;;;;;;;;5132908;27;20023;-74
2024/01/26 14:25:39;;;;;;;20.88;3.50;;;;;;;;;;5128702;27;20027;-75
2024/01/26 14:28:26;;;;;;;27.63;4.80;;;;;;;;;;5098058;28;20020;-74
2024/01/26 14:31:11;;;;;;;19.38;4.43;;;;;;;;;;5097324;28;20024;-75
2024/01/26 14:33:57;;;;;;;24.77;5.78;;;;;;;;;;5123927;27;20036;-75
2024/01/26 14:36:45;;;;;;;13.55;4.32;;;;;;;;;;5112573;28;20107;-74
2024/01/26 14:39:32;;;;;;;26.25;4.18;;;;;;;;;;5112742;28;20048;-75
2024/01/26 14:42:17;;;;;;;16.48;4.13;;;;;;;;;;5112618;28;20022;-75
2024/01/26 14:45:04;;;;;;;20.25;5.15;;;;;;;;;;5092001;28;20020;-74
2024/01/26 14:47:50;;;;;;;21.52;4.18;;;;;;;;;;5087019;28;20020;-74
2024/01/26 14:50:36;;;;;;;19.13;4.65;;;;;;;;;;5107526;28;20027;-74
2024/01/26 14:53:22;;;;;;;13.38;3.05;;;;;;;;;;5083638;28;20492;-74
2024/01/26 14:56:08;;;;;;;18.45;3.35;;;;;;;;;;5113979;28;20023;-75
2024/01/26 14:58:53;;;;;;;24.48;4.50;;;;;;;;;;5096416;28;20488;-74
2024/01/26 15:01:39;;;;;;;23.60;4.38;;;;;;;;;;5112910;28;20376;-74
2024/01/26 15:04:25;;;;;;;15.43;3.40;;;;;;;;;;5112044;28;20015;-74
2024/01/26 15:07:11;;;;;;;24.35;4.65;;;;;;;;;;5113026;28;20034;-74
2024/01/26 15:09:56;;;;;;;24.50;3.42;;;;;;;;;;5112698;28;20023;-75
2024/01/26 15:12:42;;;;;;;17.02;3.58;;;;;;;;;;5101802;28;20085;-74
2024/01/26 15:15:28;;;;;;;20.90;4.05;;;;;;;;;;5132543;28;20027;-75
2024/01/26 15:18:13;;;;;;;23.92;5.07;;;;;;;;;;5112667;28;20381;-74
2024/01/26 15:20:59;;;;;;;23.48;4.50;;;;;;;;;;5132386;28;20434;-74
2024/01/26 15:23:46;;;;;;;28.08;4.93;;;;;;;;;;5117765;27;20019;-75
2024/01/26 15:26:32;;;;;;;24.73;4.15;;;;;;;;;;5116700;28;20016;-75
2024/01/26 15:29:17;;;;;;;16.48;3.95;;;;;;;;;;5130095;28;20545;-74
2024/01/26 15:32:03;;;;;;;14.85;4.15;;;;;;;;;;5129480;28;20023;-74
2024/01/26 15:34:49;;;;;;;35.03;6.68;;;;;;;;;;5122703;27;20342;-75
2024/01/26 15:37:35;;;;;;;29.70;4.95;;;;;;;;;;5118914;27;20024;-74
2024/01/26 15:40:20;;;;;;;19.27;4.57;;;;;;;;;;5134857;27;20028;-74
2024/01/26 15:43:06;;;;;;;25.52;3.92;;;;;;;;;;5136454;27;20054;-74
2024/01/26 15:45:52;;;;;;;21.80;3.67;;;;;;;;;;5120833;27;20016;-75
2024/01/26 15:48:37;;;;;;;14.05;4.65;;;;;;;;;;5136857;27;20027;-74
2024/01/26 15:51:23;;;;;;;17.77;5.75;;;;;;;;;;5121750;27;20055;-75
2024/01/26 15:54:09;;;;;;;28.42;6.28;;;;;;;;;;5109650;28;20118;-75
2024/01/26 15:56:54;;;;;;;26.58;6.38;;;;;;;;;;5101093;28;20057;-74
2024/01/26 15:59:40;;;;;;;27.05;5.93;;;;;;;;;;5115227;27;20023;-74
2024/01/26 16:02:26;;;;;;;28.77;6.60;;;;;;;;;;5121868;27;20030;-74
2024/01/26 16:05:11;;;;;;;38.30;5.68;;;;;;;;;;5134742;27;20031;-74
2024/01/26 16:07:57;;;;;;;22.45;4.60;;;;;;;;;;5119411;27;20090;-74
2024/01/26 16:10:42;;;;;;;23.95;3.95;;;;;;;;;;5114062;28;20016;-74
2024/01/26 16:13:28;;;;;;;29.05;4.78;;;;;;;;;;5102984;28;20027;-74
2024/01/26 16:16:15;;;;;;;20.95;4.03;;;;;;;;;;5100740;28;20019;-74